Home   Weather   Germany   Kassel   Past weeks
Flag for Germany

Past Weather in Kassel, Hesse, Germany — Yesterday and Last 2 Weeks

Currently: 46 °F. Passing clouds. (Weather station: Kassel / Calden, Germany). See more current weather

Past Weather in Kassel — Graph

°F

Kassel Temperature Yesterday

Maximum temperature yesterday: 46 °F (at 2:20 pm)
Minimum temperature yesterday: 30 °F (at 2:20 am)
Average temperature yesterday: 37 °F

High & Low Weather Summary for the Past Weeks

 TemperatureHumidityPressure
High75 °F (Apr 8, 3:20 pm)100% (Apr 13, 6:50 am)30.51 "Hg (Apr 13, 6:50 am)
Low27 °F (Apr 23, 5:50 am)36% (Apr 8, 6:20 pm)29.47 "Hg (Apr 15, 6:50 pm)
Average48 °F72%30.03 "Hg
* Reported Apr 8 2:20 pm — Apr 23 2:50 pm, Kassel. Weather by CustomWeather, © 2024

Note: Actual official high and low records may vary slightly from our data, if they occured in-between our weather recording intervals... More about our weather records

Kassel Weather History for the Previous 24 Hours

Scroll right to see more
 ConditionsComfort  
Time TempWeatherWind HumidityBarometerVisibility
2:50 pm
Tue, Apr 23
46 °FPassing clouds.5 mph40%30.04 "HgN/A
2:20 pm46 °FSunny.6 mph37%30.04 "Hg10 mi
1:50 pm46 °FSunny.2 mph40%30.07 "Hg10 mi
1:20 pm45 °FPassing clouds.2 mph42%30.07 "HgN/A
12:50 pm43 °FPassing clouds.2 mph46%30.07 "HgN/A
12:20 pm45 °FPassing clouds.3 mph46%30.09 "HgN/A
11:50 am45 °FSunny.5 mph49%30.09 "Hg10 mi
11:20 am43 °FSunny.3 mph53%30.09 "Hg10 mi
10:50 am43 °FSunny.3 mph53%30.12 "Hg10 mi
10:20 am41 °FSunny.2 mph66%30.12 "Hg10 mi
9:50 am37 °FSunny.2 mph75%30.12 "Hg10 mi
9:20 am36 °FSunny.2 mph87%30.12 "Hg10 mi
8:50 am34 °FSunny.1 mph87%30.12 "Hg10 mi
8:20 am32 °FSunny.2 mph87%30.12 "Hg10 mi
7:50 am32 °FSunny.1 mph87%30.15 "Hg10 mi
7:20 am30 °FSunny.2 mph93%30.12 "Hg10 mi
6:50 am28 °FSunny.No wind93%30.12 "HgN/A
6:20 am27 °FSunny.1 mph93%30.12 "HgN/A
5:50 am27 °FClear.3 mph93%30.15 "HgN/A
5:20 am28 °FClear.1 mph93%30.15 "HgN/A
4:50 am28 °FClear.2 mph93%30.15 "HgN/A
4:20 am28 °FClear.No wind93%30.15 "HgN/A
3:50 am28 °FClear.2 mph93%30.15 "HgN/A
2:50 am28 °FClear.3 mph93%30.15 "HgN/A
2:20 am30 °FClear.2 mph86%30.15 "HgN/A
1:50 am30 °FClear.1 mph86%30.15 "HgN/A
1:20 am30 °FClear.2 mph93%30.18 "HgN/A
12:50 am30 °FClear.3 mph93%30.18 "HgN/A
12:20 am30 °FClear.2 mph93%30.18 "HgN/A
11:50 pm
Mon, Apr 22
32 °FClear.2 mph87%30.18 "HgN/A
11:20 pm34 °FClear.2 mph81%30.18 "HgN/A
10:20 pm36 °FPassing clouds.2 mph75%30.18 "HgN/A
9:50 pm36 °FClear.3 mph81%30.18 "HgN/A
9:20 pm36 °FClear.6 mph75%30.18 "HgN/A
8:50 pm37 °FClear.6 mph70%30.15 "HgN/A
8:20 pm39 °FPassing clouds.2 mph65%30.15 "HgN/A
7:50 pm41 °FScattered showers. Passing clouds.6 mph61%30.15 "HgN/A
7:20 pm41 °FScattered showers. Scattered clouds.7 mph61%30.15 "HgN/A
6:50 pm41 °FSprinkles. Scattered clouds.10 mph57%30.15 "HgN/A
6:20 pm43 °FScattered showers. Scattered clouds.12 mph53%30.15 "HgN/A
5:50 pm45 °FScattered showers. Scattered clouds.2 mph46%30.15 "HgN/A
5:20 pm43 °FScattered showers. Scattered clouds.8 mph53%30.15 "HgN/A
4:50 pm43 °FScattered showers. Scattered clouds.8 mph53%30.15 "HgN/A
4:20 pm43 °FScattered showers. Scattered clouds.6 mph57%30.15 "HgN/A
Weather by CustomWeather, © 2024

See weather overview